Time;durP1;ratioP1;P1;durP2;ratioP2;P2;SDS_P1;SDS_P2;PMS_P1;PMS_P2;Temp;Humidity;BMP_temperature;BMP_pressure;BME280_temperature;BME280_humidity;BME280_pressure;Samples;Min_cycle;Max_cycle;Signal;HPM_P1;HPM_P2
2020/12/01 00:00:19;;;;;;;30.80;20.33;;;1.60;99.90;;;;;;5037643;28;20049;-75
2020/12/01 00:02:45;;;;;;;29.20;20.85;;;1.90;99.90;;;;;;5038170;28;20040;-73
2020/12/01 00:05:12;;;;;;;30.92;20.88;;;1.70;99.90;;;;;;5038779;28;20034;-71
2020/12/01 00:07:38;;;;;;;29.75;20.58;;;1.60;99.90;;;;;;5037606;28;20052;-75
2020/12/01 00:10:06;;;;;;;30.75;18.80;;;1.50;99.90;;;;;;5039624;28;20018;-72
2020/12/01 00:12:31;;;;;;;39.67;20.65;;;1.50;99.90;;;;;;5036703;28;20021;-73
2020/12/01 00:14:57;;;;;;;29.63;19.63;;;1.60;99.90;;;;;;5034007;28;20046;-75
2020/12/01 00:17:22;;;;;;;29.90;20.25;;;1.60;99.90;;;;;;5036755;28;20029;-74
2020/12/01 00:19:48;;;;;;;29.90;20.92;;;1.40;99.90;;;;;;5036673;28;20295;-73
2020/12/01 00:22:13;;;;;;;29.85;19.85;;;1.30;99.90;;;;;;5036512;28;20458;-74
2020/12/01 00:24:39;;;;;;;35.78;21.83;;;1.10;99.90;;;;;;5046343;28;20029;-72
2020/12/01 00:27:05;;;;;;;32.30;20.73;;;1.10;99.90;;;;;;5054280;28;20021;-73
2020/12/01 00:29:30;;;;;;;31.08;21.38;;;1.00;99.90;;;;;;5042445;28;21322;-74
2020/12/01 00:31:56;;;;;;;32.65;20.75;;;1.00;99.90;;;;;;5048428;28;20597;-74
2020/12/01 00:34:21;;;;;;;34.60;21.73;;;1.00;99.90;;;;;;5039712;28;20029;-71
2020/12/01 00:36:47;;;;;;;32.28;21.90;;;1.00;99.90;;;;;;5043149;28;20021;-73
2020/12/01 00:39:13;;;;;;;31.83;22.42;;;1.10;99.90;;;;;;5049060;28;20041;-74
2020/12/01 00:41:39;;;;;;;32.58;22.15;;;1.00;99.90;;;;;;5040949;28;20059;-72
2020/12/01 00:44:05;;;;;;;37.78;22.58;;;1.00;99.90;;;;;;5036198;28;20479;-73
2020/12/01 00:46:31;;;;;;;34.40;23.13;;;1.00;99.90;;;;;;5040230;28;20392;-73
2020/12/01 00:48:57;;;;;;;31.60;21.48;;;1.00;99.90;;;;;;5034960;28;20017;-72
2020/12/01 00:51:23;;;;;;;35.80;22.25;;;1.00;99.90;;;;;;5042393;28;20021;-73
2020/12/01 00:53:48;;;;;;;35.97;22.35;;;1.10;99.90;;;;;;5053537;28;20036;-72
2020/12/01 00:56:22;;;;;;;33.47;22.33;;;1.10;99.90;;;;;;5038497;28;20032;-72
2020/12/01 00:58:48;;;;;;;35.20;22.30;;;1.20;99.90;;;;;;5034469;28;20036;-73
2020/12/01 01:01:14;;;;;;;30.40;20.88;;;1.20;99.90;;;;;;5038804;28;20065;-71
2020/12/01 01:03:40;;;;;;;28.95;20.23;;;1.30;99.90;;;;;;5047483;28;20033;-73
2020/12/01 01:06:09;;;;;;;30.77;22.33;;;1.40;99.90;;;;;;5043138;28;20115;-73
2020/12/01 01:08:34;;;;;;;27.05;19.75;;;1.50;99.90;;;;;;5051858;28;20021;-72
2020/12/01 01:11:00;;;;;;;30.35;18.98;;;1.50;99.90;;;;;;5055226;28;20100;-72
2020/12/01 01:13:25;;;;;;;32.67;20.77;;;1.60;99.90;;;;;;5053127;28;20021;-73
2020/12/01 01:15:51;;;;;;;28.75;19.23;;;1.70;99.90;;;;;;5040187;28;20043;-72
2020/12/01 01:18:16;;;;;;;31.05;20.20;;;1.70;99.90;;;;;;5041630;28;20036;-73
2020/12/01 01:20:42;;;;;;;31.75;19.55;;;1.70;99.90;;;;;;5052731;28;20033;-72
2020/12/01 01:23:07;;;;;;;29.17;20.08;;;1.70;99.90;;;;;;5042427;28;20361;-72
2020/12/01 01:25:33;;;;;;;28.50;19.08;;;1.80;99.90;;;;;;5041753;28;20392;-73
2020/12/01 01:27:59;;;;;;;30.40;19.25;;;1.80;99.90;;;;;;5042500;28;20384;-74
2020/12/01 01:30:25;;;;;;;28.23;19.45;;;1.90;99.90;;;;;;5049534;28;20027;-73
2020/12/01 01:32:51;;;;;;;31.35;19.17;;;2.00;99.90;;;;;;5038449;28;20244;-72
2020/12/01 01:35:17;;;;;;;31.70;19.90;;;2.00;99.90;;;;;;5046324;28;20029;-73
2020/12/01 01:37:43;;;;;;;30.30;18.90;;;2.10;99.90;;;;;;5034947;28;20021;-72
2020/12/01 01:40:23;;;;;;;26.63;17.90;;;2.10;99.90;;;;;;5049255;28;20026;-73
2020/12/01 01:42:49;;;;;;;26.58;18.00;;;2.20;99.90;;;;;;5041728;28;20025;-72
2020/12/01 01:45:21;;;;;;;29.08;18.90;;;2.20;99.90;;;;;;5034393;28;20026;-72
2020/12/01 01:47:47;;;;;;;28.35;17.98;;;2.20;99.90;;;;;;5034090;28;20097;-72
2020/12/01 01:50:17;;;;;;;25.77;17.98;;;2.20;99.90;;;;;;5034445;28;20057;-73
2020/12/01 01:52:49;;;;;;;29.13;18.40;;;2.30;99.90;;;;;;5054284;28;20024;-71
2020/12/01 01:55:22;;;;;;;27.20;18.50;;;2.30;99.90;;;;;;5068713;28;20016;-71
2020/12/01 01:57:53;;;;;;;31.42;19.17;;;2.30;99.90;;;;;;5057340;28;20049;-72
2020/12/01 02:00:40;;;;;;;24.92;17.08;;;2.20;99.90;;;;;;5071295;28;20068;-72
2020/12/01 02:03:06;;;;;;;30.05;17.92;;;2.30;99.90;;;;;;5031772;28;20029;-73
2020/12/01 02:05:32;;;;;;;27.85;17.30;;;2.30;99.90;;;;;;5051076;28;20029;-72
2020/12/01 02:07:57;;;;;;;25.15;18.20;;;2.30;99.90;;;;;;5050392;28;20030;-71
2020/12/01 02:10:23;;;;;;;28.17;18.52;;;2.30;99.90;;;;;;5043076;28;20026;-73
2020/12/01 02:12:52;;;;;;;27.75;17.83;;;2.30;99.90;;;;;;5052811;28;20056;-72
2020/12/01 02:15:18;;;;;;;30.17;20.10;;;2.30;99.90;;;;;;5037984;28;20053;-73
2020/12/01 02:17:44;;;;;;;29.20;18.73;;;2.30;99.90;;;;;;5033388;28;20056;-73
2020/12/01 02:20:13;;;;;;;26.45;18.25;;;2.30;99.90;;;;;;5046382;28;20499;-73
2020/12/01 02:22:43;;;;;;;27.05;18.33;;;2.30;99.90;;;;;;5039360;28;20032;-73
2020/12/01 02:25:09;;;;;;;29.13;18.90;;;2.30;99.90;;;;;;5034880;28;20123;-72
2020/12/01 02:27:34;;;;;;;33.38;19.95;;;2.40;99.90;;;;;;5032213;28;20122;-73
2020/12/01 02:30:00;;;;;;;29.95;19.83;;;2.40;99.90;;;;;;5037175;28;20021;-72
2020/12/01 02:32:27;;;;;;;32.53;18.77;;;2.40;99.90;;;;;;5041656;28;20032;-71
2020/12/01 02:34:54;;;;;;;28.48;18.20;;;2.40;99.90;;;;;;5050479;28;20021;-72
2020/12/01 02:37:23;;;;;;;30.63;19.65;;;2.70;99.90;;;;;;5045118;28;20162;-72
2020/12/01 02:39:49;;;;;;;27.63;18.52;;;2.40;99.90;;;;;;5024264;28;20504;-72
2020/12/01 02:42:20;;;;;;;28.88;18.85;;;2.30;99.90;;;;;;5047569;28;20092;-72
2020/12/01 02:44:46;;;;;;;;;;;2.30;99.90;;;;;;5048745;28;20025;-72
2020/12/01 02:47:12;;;;;;;27.33;17.92;;;2.20;99.90;;;;;;5034331;28;19916;-73
2020/12/01 02:49:37;;;;;;;29.42;18.10;;;2.10;99.90;;;;;;5033358;28;20025;-71
2020/12/01 02:52:04;;;;;;;28.67;19.20;;;2.10;99.90;;;;;;5035430;28;20079;-72
2020/12/01 02:54:30;;;;;;;26.52;18.02;;;2.10;99.90;;;;;;5053001;28;20028;-70
2020/12/01 02:56:56;;;;;;;28.13;18.90;;;2.10;99.90;;;;;;5053068;28;20025;-71
2020/12/01 02:59:21;;;;;;;32.38;20.13;;;2.10;99.90;;;;;;5050002;28;20036;-72
2020/12/01 03:01:47;;;;;;;27.77;19.13;;;2.10;99.90;;;;;;5043150;28;20217;-72
2020/12/01 03:04:13;;;;;;;27.48;17.98;;;2.10;99.90;;;;;;5034163;28;20423;-73
2020/12/01 03:06:38;;;;;;;29.92;17.98;;;2.10;99.90;;;;;;5048486;28;20033;-72
2020/12/01 03:09:07;;;;;;;24.88;17.33;;;2.20;99.90;;;;;;5062122;28;20025;-72
2020/12/01 03:11:32;;;;;;;27.13;17.52;;;2.30;99.90;;;;;;5045899;28;20499;-72
2020/12/01 03:13:58;;;;;;;21.35;15.75;;;2.40;99.90;;;;;;5057291;28;20029;-72
2020/12/01 03:16:24;;;;;;;25.05;16.20;;;2.40;99.90;;;;;;5045434;28;20052;-72
2020/12/01 03:18:49;;;;;;;27.23;16.65;;;2.40;99.90;;;;;;5046581;28;20116;-72
2020/12/01 03:21:16;;;;;;;26.23;16.77;;;2.50;99.90;;;;;;5055130;28;20037;-73
2020/12/01 03:23:43;;;;;;;25.35;16.60;;;2.50;99.90;;;;;;5039475;28;20029;-72
2020/12/01 03:26:11;;;;;;;26.20;15.77;;;2.50;99.90;;;;;;5046227;28;20036;-71
2020/12/01 03:28:36;;;;;;;26.02;16.00;;;2.60;99.90;;;;;;5062105;28;20022;-72
2020/12/01 03:31:02;;;;;;;22.42;15.68;;;2.60;99.90;;;;;;5050396;28;20044;-73
2020/12/01 03:33:28;;;;;;;25.45;15.05;;;2.70;99.90;;;;;;5035078;28;20104;-72
2020/12/01 03:35:53;;;;;;;22.98;15.27;;;2.70;99.90;;;;;;5037556;28;20117;-72
2020/12/01 03:38:19;;;;;;;24.67;15.48;;;2.60;99.90;;;;;;5036322;28;20453;-72
2020/12/01 03:40:46;;;;;;;24.98;16.25;;;2.60;99.90;;;;;;5051815;28;20403;-72
2020/12/01 03:43:12;;;;;;;19.85;13.35;;;2.70;99.90;;;;;;5016340;28;20084;-72
2020/12/01 03:45:38;;;;;;;23.50;15.60;;;2.70;99.90;;;;;;5047218;28;20033;-72
2020/12/01 03:48:04;;;;;;;20.90;14.98;;;2.80;99.90;;;;;;5054515;28;20392;-72
2020/12/01 03:50:29;;;;;;;22.30;14.10;;;2.70;99.90;;;;;;5036778;28;20037;-72
2020/12/01 03:52:56;;;;;;;24.75;15.60;;;2.70;99.90;;;;;;5037091;28;20098;-72
2020/12/01 03:55:23;;;;;;;24.63;14.20;;;2.70;99.90;;;;;;5049644;28;20033;-72
2020/12/01 03:57:49;;;;;;;24.35;14.77;;;2.90;99.90;;;;;;5050598;28;20026;-73
2020/12/01 04:00:23;;;;;;;22.85;15.38;;;2.90;99.90;;;;;;5049655;28;20032;-73
2020/12/01 04:02:49;;;;;;;24.85;16.98;;;3.00;99.90;;;;;;5048224;28;20029;-72
2020/12/01 04:05:16;;;;;;;25.33;15.45;;;2.90;99.90;;;;;;5048768;28;20041;-72
2020/12/01 04:07:43;;;;;;;24.42;15.90;;;2.80;99.90;;;;;;5037927;28;20147;-72
2020/12/01 04:10:11;;;;;;;23.65;14.68;;;2.80;99.90;;;;;;5045156;28;20028;-72
2020/12/01 04:12:37;;;;;;;21.48;14.40;;;3.00;99.90;;;;;;5049374;28;20435;-72
2020/12/01 04:15:03;;;;;;;20.50;14.90;;;2.90;99.90;;;;;;5054183;28;20041;-72
2020/12/01 04:17:28;;;;;;;22.05;15.38;;;2.90;99.90;;;;;;5059753;28;20025;-72
2020/12/01 04:19:54;;;;;;;20.75;14.45;;;2.90;99.90;;;;;;5069049;28;20036;-72
2020/12/01 04:22:20;;;;;;;22.08;15.43;;;2.90;99.90;;;;;;5054469;28;20030;-72
2020/12/01 04:24:45;;;;;;;21.25;14.55;;;2.90;99.90;;;;;;5045007;28;20037;-73
2020/12/01 04:27:13;;;;;;;22.85;15.35;;;2.90;99.90;;;;;;5045338;28;20387;-72
2020/12/01 04:29:38;;;;;;;24.55;15.80;;;2.90;99.90;;;;;;5041788;28;20521;-72
2020/12/01 04:32:05;;;;;;;22.48;15.32;;;3.00;99.90;;;;;;5042517;28;20033;-71
2020/12/01 04:34:32;;;;;;;22.58;15.35;;;3.00;99.90;;;;;;5035746;28;20033;-73
2020/12/01 04:36:58;;;;;;;19.42;14.63;;;3.00;99.90;;;;;;5049703;28;20033;-72
2020/12/01 04:39:24;;;;;;;23.05;14.95;;;3.00;99.90;;;;;;5051933;28;20106;-72
2020/12/01 04:41:50;;;;;;;22.77;14.35;;;3.00;99.90;;;;;;5055117;28;20029;-72
2020/12/01 04:44:40;;;;;;;21.48;14.60;;;3.00;99.90;;;;;;5037594;28;20065;-72
2020/12/01 04:47:15;;;;;;;20.98;14.68;;;3.00;99.90;;;;;;5040467;28;20044;-71
2020/12/01 04:49:45;;;;;;;25.33;15.52;;;3.00;99.90;;;;;;5040735;28;20032;-72
2020/12/01 04:52:43;;;;;;;23.48;16.08;;;3.00;99.90;;;;;;5054418;28;20021;-71
2020/12/01 04:55:19;;;;;;;21.88;15.88;;;3.00;99.90;;;;;;5026331;28;20042;-73
2020/12/01 04:57:55;;;;;;;17.75;13.30;;;3.00;99.90;;;;;;5015400;28;20093;-72
2020/12/01 05:00:55;;;;;;;20.45;14.63;;;3.00;99.90;;;;;;5014000;28;20022;-72
2020/12/01 05:03:25;;;;;;;20.85;13.55;;;3.00;99.90;;;;;;5014606;28;20038;-73
2020/12/01 05:08:55;;;;;;;21.23;13.68;;;3.00;99.90;;;;;;5034547;28;20083;-72
2020/12/01 05:11:37;;;;;;;23.65;14.82;;;3.00;99.90;;;;;;5034425;28;20439;-72
2020/12/01 05:14:16;;;;;;;20.20;14.82;;;3.00;99.90;;;;;;5033877;28;20536;-72
2020/12/01 05:17:19;;;;;;;22.00;14.63;;;3.00;99.90;;;;;;5032830;28;20026;-72
2020/12/01 05:19:47;;;;;;;21.35;13.95;;;3.00;99.90;;;;;;5033934;28;20040;-73
2020/12/01 05:22:19;;;;;;;23.85;15.02;;;2.90;99.90;;;;;;5048121;28;20029;-72
2020/12/01 05:24:50;;;;;;;30.25;15.07;;;2.90;99.90;;;;;;5053741;28;20020;-72
2020/12/01 05:27:29;;;;;;;21.10;14.55;;;3.00;99.90;;;;;;5040303;28;20424;-72
2020/12/01 05:29:58;;;;;;;19.30;13.95;;;2.90;99.90;;;;;;5035355;28;20022;-72
2020/12/01 05:32:39;;;;;;;23.17;13.57;;;2.90;99.90;;;;;;5043504;28;20474;-73
2020/12/01 05:35:14;;;;;;;25.73;15.23;;;2.90;99.90;;;;;;5053579;28;20017;-74
2020/12/01 05:37:39;;;;;;;24.92;14.30;;;2.90;99.90;;;;;;5036522;28;20038;-73
2020/12/01 05:40:07;;;;;;;18.42;12.93;;;3.00;99.90;;;;;;5033581;28;20108;-73
2020/12/01 05:42:40;;;;;;;23.00;15.02;;;2.90;99.90;;;;;;5033078;28;20117;-72
2020/12/01 05:45:06;;;;;;;19.65;12.85;;;2.90;99.90;;;;;;5033105;28;20029;-73
2020/12/01 05:47:40;;;;;;;19.75;14.35;;;3.00;99.90;;;;;;5043579;28;20036;-71
2020/12/01 05:50:10;;;;;;;20.63;12.73;;;3.00;99.90;;;;;;5048945;28;20024;-72
2020/12/01 05:53:05;;;;;;;19.40;12.90;;;3.00;99.90;;;;;;5035749;28;20044;-73
2020/12/01 05:55:31;;;;;;;18.42;12.63;;;3.00;99.90;;;;;;5047110;28;20029;-72
2020/12/01 05:58:12;;;;;;;19.13;13.85;;;3.00;99.90;;;;;;5039024;28;20040;-73
2020/12/01 06:00:40;;;;;;;18.80;12.70;;;3.00;99.90;;;;;;5034308;28;20030;-72
2020/12/01 06:03:17;;;;;;;30.40;18.35;;;3.10;99.90;;;;;;5051791;28;20036;-73
2020/12/01 06:05:47;;;;;;;22.15;14.52;;;3.00;99.90;;;;;;5049656;28;20025;-73
2020/12/01 06:08:46;;;;;;;23.95;13.35;;;3.00;99.90;;;;;;5032923;28;20034;-72
2020/12/01 06:11:27;;;;;;;21.73;13.68;;;3.10;99.90;;;;;;5035027;28;20529;-72
2020/12/01 06:13:59;;;;;;;19.98;13.18;;;3.00;99.90;;;;;;5033850;28;20033;-73
2020/12/01 06:16:47;;;;;;;22.17;13.52;;;3.00;99.90;;;;;;5039191;28;20036;-72
2020/12/01 06:19:21;;;;;;;24.33;14.10;;;3.10;99.90;;;;;;5052500;28;20108;-72
2020/12/01 06:22:19;;;;;;;21.48;13.98;;;3.30;99.90;;;;;;5041796;28;20112;-72
2020/12/01 06:24:56;;;;;;;22.75;14.10;;;3.40;99.90;;;;;;5026188;28;20065;-71
2020/12/01 06:27:52;;;;;;;25.10;15.38;;;3.60;99.90;;;;;;5046936;28;20088;-72
2020/12/01 06:30:42;;;;;;;19.75;14.02;;;3.70;99.90;;;;;;5047786;28;20097;-72
2020/12/01 06:33:45;;;;;;;27.00;14.27;;;3.60;99.90;;;;;;5029988;28;20092;-71
2020/12/01 06:36:55;;;;;;;26.48;15.38;;;3.50;99.90;;;;;;5059397;28;20094;-72
2020/12/01 06:39:49;;;;;;;25.57;16.30;;;3.50;99.90;;;;;;5046510;28;20048;-72
2020/12/01 06:42:46;;;;;;;31.08;16.33;;;3.40;99.90;;;;;;5042712;28;20037;-72
2020/12/01 06:45:21;;;;;;;23.92;16.48;;;3.40;99.90;;;;;;5042121;28;20713;-72
2020/12/01 06:47:49;;;;;;;28.20;16.05;;;3.40;99.90;;;;;;5050594;28;20033;-71
2020/12/01 06:50:18;;;;;;;29.55;16.63;;;3.40;99.90;;;;;;5050540;28;20392;-72
2020/12/01 06:53:02;;;;;;;26.95;14.85;;;3.50;99.90;;;;;;5036905;28;20026;-73
2020/12/01 06:55:46;;;;;;;25.77;17.08;;;3.50;99.90;;;;;;5032822;28;20477;-72
2020/12/01 06:58:16;;;;;;;33.13;16.95;;;3.50;99.90;;;;;;5041004;28;20029;-73
2020/12/01 07:00:42;;;;;;;34.17;18.83;;;3.50;99.90;;;;;;5014645;28;20081;-73
2020/12/01 07:03:09;;;;;;;31.33;17.08;;;3.50;99.90;;;;;;5052671;28;20025;-72
2020/12/01 07:05:35;;;;;;;37.50;18.88;;;3.40;99.90;;;;;;5052610;28;20017;-73
2020/12/01 07:08:13;;;;;;;34.20;18.70;;;3.30;99.90;;;;;;5033850;28;20037;-73
2020/12/01 07:10:38;;;;;;;32.17;18.65;;;3.30;99.90;;;;;;5032874;28;20104;-73
2020/12/01 07:13:29;;;;;;;36.85;18.73;;;3.20;99.90;;;;;;5052767;28;20433;-72
2020/12/01 07:16:08;;;;;;;30.50;17.92;;;3.10;99.90;;;;;;5034687;28;20025;-72
2020/12/01 07:18:35;;;;;;;29.08;17.77;;;3.20;99.90;;;;;;5051319;28;20068;-72
2020/12/01 07:21:24;;;;;;;32.88;17.83;;;3.20;99.90;;;;;;5049113;28;20043;-73
2020/12/01 07:24:17;;;;;;;28.75;17.58;;;3.10;99.90;;;;;;5054377;28;20485;-73
2020/12/01 07:27:04;;;;;;;39.60;19.17;;;3.10;99.90;;;;;;5041529;28;20052;-73
2020/12/01 07:29:52;;;;;;;31.67;18.38;;;3.30;99.90;;;;;;5035183;28;20024;-72
2020/12/01 07:32:22;;;;;;;28.67;18.73;;;3.30;99.90;;;;;;5023081;28;20096;-72
2020/12/01 07:35:02;;;;;;;30.33;18.85;;;3.30;99.90;;;;;;5041448;28;20025;-72
2020/12/01 07:37:54;;;;;;;36.53;20.77;;;3.20;99.90;;;;;;5038118;28;20044;-72
2020/12/01 07:40:27;;;;;;;31.83;19.30;;;3.30;99.90;;;;;;5035630;28;20037;-72
2020/12/01 07:43:02;;;;;;;36.72;19.92;;;3.30;99.90;;;;;;5052529;28;20055;-73
2020/12/01 07:45:30;;;;;;;34.95;19.42;;;3.20;99.90;;;;;;5046141;28;20109;-73
2020/12/01 07:48:02;;;;;;;33.28;19.85;;;3.30;99.90;;;;;;5054339;28;20116;-72
2020/12/01 07:50:30;;;;;;;31.45;19.25;;;3.20;99.90;;;;;;5042722;28;20021;-72
2020/12/01 07:53:01;;;;;;;28.58;18.45;;;3.30;99.90;;;;;;5045709;28;20029;-72
2020/12/01 07:56:00;;;;;;;30.77;18.23;;;3.50;99.90;;;;;;5045605;28;20035;-72
2020/12/01 07:58:28;;;;;;;30.27;18.17;;;3.50;99.90;;;;;;5032714;28;20029;-73
2020/12/01 08:00:57;;;;;;;28.15;18.55;;;3.50;99.90;;;;;;5040418;28;20151;-74
2020/12/01 08:03:26;;;;;;;32.80;19.83;;;3.50;99.90;;;;;;5032114;28;20423;-75
2020/12/01 08:05:52;;;;;;;34.60;18.25;;;3.60;99.90;;;;;;5040541;28;20116;-73
2020/12/01 08:08:22;;;;;;;36.78;20.05;;;3.60;99.90;;;;;;5051730;28;20055;-73
2020/12/01 08:10:50;;;;;;;36.78;20.42;;;3.30;99.90;;;;;;5036369;28;20034;-73
2020/12/01 08:13:18;;;;;;;38.20;20.48;;;3.10;99.90;;;;;;5050249;28;20045;-73
2020/12/01 08:15:44;;;;;;;38.10;20.83;;;3.00;99.90;;;;;;5055156;28;20103;-74
2020/12/01 08:18:15;;;;;;;35.88;21.00;;;3.00;99.90;;;;;;5052191;28;20052;-74
2020/12/01 08:20:42;;;;;;;41.97;22.08;;;3.10;99.90;;;;;;5049153;28;20039;-73
2020/12/01 08:23:18;;;;;;;37.28;21.98;;;3.30;99.90;;;;;;5045822;28;20541;-73
2020/12/01 08:25:51;;;;;;;35.35;18.70;;;3.50;99.90;;;;;;5034249;28;20030;-73
2020/12/01 08:28:38;;;;;;;35.60;21.10;;;3.70;99.90;;;;;;5037878;28;20563;-72
2020/12/01 08:31:08;;;;;;;36.92;21.48;;;3.60;99.90;;;;;;5038856;28;20097;-73
2020/12/01 08:34:06;;;;;;;35.42;21.63;;;3.50;99.90;;;;;;5048215;28;20056;-72
2020/12/01 08:36:40;;;;;;;40.58;22.65;;;3.30;99.90;;;;;;5034706;28;20033;-72
2020/12/01 08:39:25;;;;;;;40.22;22.70;;;3.10;99.90;;;;;;5052799;28;20021;-73
2020/12/01 08:42:14;;;;;;;42.08;23.92;;;3.10;99.90;;;;;;5053995;28;20021;-72
2020/12/01 08:44:52;;;;;;;38.35;21.45;;;3.10;99.90;;;;;;5052145;28;20032;-72
2020/12/01 08:47:21;;;;;;;35.25;22.33;;;3.20;99.90;;;;;;5035630;28;20547;-73
2020/12/01 08:49:50;;;;;;;38.97;21.73;;;3.10;99.90;;;;;;5037043;28;20028;-73
2020/12/01 08:52:41;;;;;;;30.27;20.45;;;3.10;99.90;;;;;;5036180;28;20021;-75
2020/12/01 08:55:24;;;;;;;34.88;20.52;;;3.00;99.90;;;;;;5036456;28;20048;-73
2020/12/01 08:58:06;;;;;;;32.75;21.08;;;3.30;99.90;;;;;;5034137;28;20111;-72
2020/12/01 09:00:34;;;;;;;37.47;21.60;;;3.40;99.90;;;;;;5048535;28;20035;-72
2020/12/01 09:03:10;;;;;;;31.70;21.17;;;3.40;99.90;;;;;;5051906;28;20025;-74
2020/12/01 09:05:45;;;;;;;32.67;20.17;;;3.30;99.90;;;;;;5051159;28;20029;-74
2020/12/01 09:14:50;;;;;;;32.67;20.40;;;3.60;99.90;;;;;;5040032;28;20514;-72
2020/12/01 09:16:57;;;;;;;26.27;16.13;;;3.60;99.90;;;;;;5031214;28;20489;-72
2020/12/01 09:22:14;;;;;;;30.88;19.58;;;3.80;99.90;;;;;;5049969;28;20092;-74
2020/12/01 09:24:40;;;;;;;30.45;18.45;;;3.70;99.90;;;;;;5045174;28;20025;-73
2020/12/01 09:27:12;;;;;;;26.15;17.13;;;3.70;99.90;;;;;;5049865;28;20028;-73
2020/12/01 09:29:43;;;;;;;33.40;20.25;;;3.80;99.90;;;;;;5052959;28;20027;-74
2020/12/01 09:32:16;;;;;;;26.13;17.98;;;4.00;99.90;;;;;;5053705;28;20187;-72
2020/12/01 09:34:41;;;;;;;32.08;19.73;;;4.00;99.90;;;;;;5014285;28;20481;-72
2020/12/01 09:37:07;;;;;;;22.73;16.73;;;4.00;99.90;;;;;;5029129;28;20121;-72
2020/12/01 09:39:32;;;;;;;30.23;18.02;;;4.00;99.90;;;;;;5024065;28;20030;-73
2020/12/01 09:42:06;;;;;;;30.38;19.73;;;4.10;99.90;;;;;;5036000;28;20057;-73
2020/12/01 09:47:04;;;;;;;30.92;19.30;;;4.10;99.90;;;;;;5026071;28;20029;-73
2020/12/01 09:49:30;;;;;;;26.90;16.67;;;4.00;99.90;;;;;;5032650;28;20036;-72
2020/12/01 09:52:13;;;;;;;30.17;20.08;;;4.10;99.90;;;;;;5043074;28;20476;-73
2020/12/01 10:03:11;;;;;;;24.60;15.70;;;3.70;99.90;;;;;;5031575;28;20216;-73
2020/12/01 10:08:23;;;;;;;30.65;17.20;;;3.70;99.90;;;;;;5052360;28;20542;-73
2020/12/01 10:27:12;;;;;;;29.23;16.48;;;4.00;99.90;;;;;;5037097;28;20022;-72
2020/12/01 10:34:55;;;;;;;26.38;17.92;;;4.50;99.90;;;;;;5030581;28;20055;-72
2020/12/01 10:37:20;;;;;;;26.17;18.08;;;4.40;99.90;;;;;;5017179;28;20028;-74
2020/12/01 10:39:46;;;;;;;26.02;18.50;;;4.50;99.90;;;;;;5026183;28;20100;-73
2020/12/01 10:42:13;;;;;;;30.10;18.63;;;4.50;99.90;;;;;;5019969;28;20034;-73
2020/12/01 10:44:39;;;;;;;25.17;16.20;;;4.40;99.90;;;;;;5022976;28;20037;-73
2020/12/01 10:47:06;;;;;;;26.23;18.65;;;4.20;99.90;;;;;;5025609;28;20060;-73
2020/12/01 10:49:31;;;;;;;27.10;17.65;;;4.20;99.90;;;;;;5027830;28;20040;-73
2020/12/01 10:51:57;;;;;;;30.85;18.35;;;4.10;99.90;;;;;;5028856;28;20068;-72
2020/12/01 10:54:23;;;;;;;27.88;19.00;;;4.20;99.90;;;;;;5024017;28;20050;-73
2020/12/01 10:56:49;;;;;;;25.92;17.15;;;4.20;99.90;;;;;;5037390;28;20040;-74
2020/12/01 10:59:16;;;;;;;23.88;15.00;;;4.10;99.90;;;;;;5040670;28;20113;-73
2020/12/01 11:01:42;;;;;;;21.85;13.15;;;4.20;99.90;;;;;;5034365;28;20044;-73
2020/12/01 11:04:09;;;;;;;24.08;15.57;;;4.30;99.90;;;;;;5024775;28;20030;-73
2020/12/01 11:06:36;;;;;;;19.55;12.75;;;4.40;99.90;;;;;;5033848;28;20408;-73
2020/12/01 11:09:07;;;;;;;20.75;15.02;;;4.40;99.90;;;;;;5030868;28;20075;-73
2020/12/01 11:11:32;;;;;;;24.23;16.20;;;4.40;99.90;;;;;;5025638;28;20022;-73
2020/12/01 11:13:58;;;;;;;23.48;14.02;;;4.50;99.90;;;;;;5032089;28;20091;-74
2020/12/01 11:16:23;;;;;;;22.13;15.48;;;4.40;99.90;;;;;;5018963;28;20057;-73
2020/12/01 11:18:49;;;;;;;20.35;14.13;;;4.30;99.90;;;;;;5025886;28;20029;-74
2020/12/01 11:21:14;;;;;;;20.42;14.65;;;4.20;99.90;;;;;;5025047;28;20085;-73
2020/12/01 11:23:40;;;;;;;21.15;15.20;;;4.20;99.90;;;;;;5023245;28;20057;-74
2020/12/01 11:26:05;;;;;;;20.08;14.25;;;4.40;99.90;;;;;;5030491;28;20042;-73
2020/12/01 11:28:31;;;;;;;21.48;14.60;;;4.20;99.90;;;;;;5038359;28;20029;-73
2020/12/01 11:30:57;;;;;;;21.35;13.40;;;4.00;99.90;;;;;;5036893;28;20084;-74
2020/12/01 11:33:22;;;;;;;20.42;13.95;;;3.80;99.90;;;;;;5010155;28;20465;-73
2020/12/01 11:35:48;;;;;;;19.23;14.95;;;3.70;99.90;;;;;;5015074;28;20068;-74
2020/12/01 11:38:15;;;;;;;20.25;13.95;;;3.70;99.90;;;;;;5032425;28;20104;-73
2020/12/01 11:40:41;;;;;;;17.80;13.93;;;3.70;99.90;;;;;;5016397;28;20072;-73
2020/12/01 11:43:06;;;;;;;18.67;12.70;;;3.70;99.90;;;;;;5034431;28;20033;-73
2020/12/01 11:45:32;;;;;;;18.35;11.93;;;3.70;99.90;;;;;;5031808;28;20033;-74
2020/12/01 11:47:58;;;;;;;22.52;14.68;;;3.70;99.90;;;;;;5040764;28;20036;-73
2020/12/01 11:50:23;;;;;;;19.80;14.63;;;3.80;99.90;;;;;;5036601;28;20030;-73
2020/12/01 11:52:49;;;;;;;24.05;16.20;;;3.90;99.90;;;;;;5025677;28;20026;-73
2020/12/01 11:55:15;;;;;;;16.77;13.07;;;3.90;99.90;;;;;;5022521;28;20048;-73
2020/12/01 11:57:40;;;;;;;19.05;14.27;;;4.00;99.90;;;;;;5026633;28;20114;-74
2020/12/01 12:00:07;;;;;;;21.08;14.95;;;4.30;99.90;;;;;;5036548;28;20369;-74
2020/12/01 12:02:33;;;;;;;24.95;14.93;;;4.50;99.90;;;;;;5021285;28;20025;-74
2020/12/01 12:04:58;;;;;;;19.70;13.88;;;4.50;99.90;;;;;;5018117;28;20118;-73
2020/12/01 12:07:24;;;;;;;18.98;13.95;;;4.50;99.90;;;;;;5032573;28;20037;-72
2020/12/01 12:09:49;;;;;;;14.43;11.80;;;4.30;99.90;;;;;;5032550;28;20049;-74
2020/12/01 12:12:15;;;;;;;15.52;11.65;;;4.30;99.90;;;;;;4993449;28;20033;-73
2020/12/01 12:14:41;;;;;;;16.48;11.18;;;4.10;99.90;;;;;;5036595;28;20037;-73
2020/12/01 12:17:07;;;;;;;18.08;12.85;;;4.00;99.90;;;;;;5044130;28;20041;-74
2020/12/01 12:19:33;;;;;;;17.90;13.32;;;4.20;99.90;;;;;;5030949;28;20377;-73
2020/12/01 12:21:58;;;;;;;17.70;12.00;;;4.30;99.90;;;;;;5044813;28;20028;-74
2020/12/01 12:24:24;;;;;;;18.55;11.65;;;4.20;99.90;;;;;;5049727;28;20025;-73
2020/12/01 12:26:49;;;;;;;18.58;12.65;;;4.10;99.90;;;;;;5032757;28;20068;-73
2020/12/01 12:29:15;;;;;;;14.48;12.63;;;3.90;99.90;;;;;;5038703;28;20483;-72
2020/12/01 12:31:40;;;;;;;15.25;10.15;;;3.90;99.90;;;;;;5052363;28;20361;-74
2020/12/01 12:34:06;;;;;;;12.82;10.15;;;3.80;99.90;;;;;;5031248;28;20079;-73
2020/12/01 12:36:32;;;;;;;14.55;10.70;;;3.80;99.90;;;;;;5024248;28;20401;-74
2020/12/01 12:38:58;;;;;;;18.63;10.50;;;3.80;99.90;;;;;;5017746;28;20022;-75
2020/12/01 12:41:23;;;;;;;14.32;10.00;;;3.80;99.90;;;;;;5024824;28;20033;-74
2020/12/01 12:43:49;;;;;;;14.60;9.90;;;3.80;99.90;;;;;;5030383;28;20029;-74
2020/12/01 12:46:15;;;;;;;14.13;12.20;;;3.80;99.90;;;;;;5024537;28;20042;-73
2020/12/01 12:48:41;;;;;;;15.40;10.60;;;3.80;99.90;;;;;;5021880;28;20076;-74
2020/12/01 12:51:06;;;;;;;12.07;9.75;;;3.80;99.90;;;;;;5026477;28;20095;-73
2020/12/01 12:53:32;;;;;;;11.07;9.18;;;3.80;99.90;;;;;;5020584;28;20025;-73
2020/12/01 12:55:57;;;;;;;16.17;9.07;;;3.90;99.90;;;;;;5019391;28;20074;-74
2020/12/01 12:58:23;;;;;;;10.68;9.57;;;3.90;99.90;;;;;;5024232;28;20092;-74
2020/12/01 13:00:49;;;;;;;13.20;9.65;;;3.90;99.90;;;;;;5027032;28;20093;-75
2020/12/01 13:03:14;;;;;;;12.52;8.95;;;3.80;99.90;;;;;;5032727;28;20487;-74
2020/12/01 13:05:40;;;;;;;13.15;9.27;;;4.00;99.90;;;;;;5032136;28;20492;-75
2020/12/01 13:08:06;;;;;;;11.05;8.80;;;4.40;99.90;;;;;;5031069;28;20103;-74
2020/12/01 13:10:32;;;;;;;10.60;8.00;;;4.70;99.90;;;;;;5026300;28;20029;-74
2020/12/01 13:12:59;;;;;;;12.88;7.95;;;4.60;99.90;;;;;;5032170;28;20057;-74
2020/12/01 13:15:25;;;;;;;12.77;8.27;;;4.60;99.90;;;;;;5035761;28;20088;-74
2020/12/01 13:17:51;;;;;;;9.70;8.15;;;4.80;99.90;;;;;;5026790;28;20080;-73
2020/12/01 13:20:21;;;;;;;10.00;7.32;;;4.80;99.90;;;;;;5020377;28;20064;-74
2020/12/01 13:22:47;;;;;;;7.38;6.07;;;4.90;99.90;;;;;;5034745;28;20396;-73
2020/12/01 13:25:13;;;;;;;7.57;6.40;;;4.90;99.90;;;;;;5027293;28;20034;-73
2020/12/01 13:27:38;;;;;;;9.00;7.20;;;4.80;99.90;;;;;;5026804;28;20033;-73
2020/12/01 13:30:07;;;;;;;9.35;8.27;;;4.60;99.90;;;;;;5034674;28;20159;-74
2020/12/01 13:32:32;;;;;;;10.80;7.78;;;4.70;99.90;;;;;;5039304;28;20069;-73
2020/12/01 13:34:58;;;;;;;11.75;8.75;;;4.70;99.90;;;;;;5039366;28;20510;-75
2020/12/01 13:37:24;;;;;;;11.73;8.45;;;4.70;99.90;;;;;;5047588;28;20056;-74
2020/12/01 13:39:49;;;;;;;13.77;8.15;;;4.50;99.90;;;;;;5020203;28;20030;-74